Messwerte Monte Scuro

Temperatur

Temperatur
°C
1624446000 13.00 13.00 27
1624449600 14.00 14.00 27
1624453200 15.00 15.00 28
1624456800 16.00 16.00 29
1624460400 17.00 17.00 29
1624464000 18.00 18.00 28
1624467600 19.00 19.00 27
1624471200 20.00 20.00 26
1624474800 21.00 21.00 25
1624478400 22.00 22.00 25
1624482000 23.00 23.00 25
1624485600 0.00 0.00 24
1624489200 1.00 1.00 24
1624492800 2.00 2.00 24
1624496400 3.00 3.00
1624500000 4.00 4.00 24
1624503600 5.00 5.00 24
1624507200 6.00 6.00
1624510800 7.00 7.00 25
1624514400 8.00 8.00 27
1624518000 9.00 9.00 27
1624521600 10.00 10.00 26
1624525200 11.00 11.00 26
1624528800 12.00 12.00 26

Aktuellste Messwerte

Wettercharakter
Wetter: recht sonnig
Temperatur
26 °C
Feuchtigkeit
35 %
Wind
5 km/hWindrichtung: West
Luftdruck
1032 hPa
Messzeit: 24. Juni 2021, 13.00Datenquelle: METAR

Weitere Messstationen in der Nähe

Messstation Temperatur Entfernung
Lamezia Terme 36 °C 50 km
Crotone 35 °C 68 km
Marina Ginosa 33 °C 129 km
Messina 32 °C 146 km
Reggio di Calabria 35 °C 154 km
Grottaglie 38 °C 157 km
Gioia del Colle 39 °C 166 km

Wind

Windrichtung Böen Mittelwind
° km/h km/h
1624446000 13.00 12.00 - 13.00 300° 5
1624449600 14.00 13.00 - 14.00 270° 5
1624453200 15.00 14.00 - 15.00 5
1624456800 16.00 15.00 - 16.00 5
1624460400 17.00 16.00 - 17.00 5
1624464000 18.00 17.00 - 18.00 5
1624467600 19.00 18.00 - 19.00 5
1624471200 20.00 19.00 - 20.00 5
1624474800 21.00 20.00 - 21.00 260° 5
1624478400 22.00 21.00 - 22.00 5
1624482000 23.00 22.00 - 23.00 230° 5
1624485600 0.00 23.00 - 0.00 5
1624489200 1.00 0.00 - 1.00 200° 5
1624492800 2.00 1.00 - 2.00 330° 5
1624496400 3.00 2.00 - 3.00
1624500000 4.00 3.00 - 4.00 270° 5
1624503600 5.00 4.00 - 5.00 250° 5
1624507200 6.00 5.00 - 6.00
1624510800 7.00 6.00 - 7.00 360° 5
1624514400 8.00 7.00 - 8.00 5
1624518000 9.00 8.00 - 9.00 5
1624521600 10.00 9.00 - 10.00 5
1624525200 11.00 10.00 - 11.00 270° 5
1624528800 12.00 11.00 - 12.00 260° 5

Ihre Wetterstation

Fehlt Ihre Wetterstation auf unserem Portal?

Schreiben Sie an network@meteonews.ch

Klima

Wann ist es am wärmsten? Wann regnet es am wenigsten? Unsere Klimadaten geben Auskunft.